createdAt,value
2019-03-16T00:01:59.029Z,8.40
2019-03-16T00:04:02.580Z,8.30
2019-03-16T00:06:05.470Z,8.30
2019-03-16T00:08:09.057Z,8.40
2019-03-16T00:10:11.926Z,8.40
2019-03-16T00:12:15.503Z,8.40
2019-03-16T00:14:18.277Z,8.40
2019-03-16T00:16:21.848Z,8.40
2019-03-16T00:18:24.643Z,8.30
2019-03-16T00:20:28.227Z,8.40
2019-03-16T00:22:31.024Z,8.30
2019-03-16T00:24:34.609Z,8.30
2019-03-16T00:26:37.418Z,8.40
2019-03-16T00:28:40.979Z,8.40
2019-03-16T00:30:43.773Z,8.40
2019-03-16T00:32:47.328Z,8.40
2019-03-16T00:34:50.139Z,8.40
2019-03-16T00:36:53.833Z,8.30
2019-03-16T00:38:57.399Z,8.20
2019-03-16T00:41:00.283Z,7.80
2019-03-16T00:43:03.928Z,7.60
2019-03-16T00:45:09.961Z,7.30
2019-03-16T00:47:13.607Z,7.20
2019-03-16T00:49:18.713Z,7.10
2019-03-16T00:51:22.287Z,7.10
2019-03-16T00:53:25.064Z,7.10
2019-03-16T00:55:28.623Z,7.10
2019-03-16T00:57:31.483Z,7.10
2019-03-16T00:59:35.113Z,7.10
2019-03-16T01:01:38.741Z,7.10
2019-03-16T01:03:42.416Z,7.30
2019-03-16T01:05:45.968Z,7.40
2019-03-16T01:07:48.751Z,7.60
2019-03-16T01:09:52.337Z,7.80
2019-03-16T01:11:55.103Z,7.80
2019-03-16T01:13:58.697Z,7.80
2019-03-16T01:16:01.496Z,7.90
2019-03-16T01:18:05.163Z,7.90
2019-03-16T01:20:09.453Z,7.90
2019-03-16T01:22:13.041Z,7.90
2019-03-16T01:24:15.801Z,7.80
2019-03-16T01:26:19.428Z,7.80
2019-03-16T01:28:22.993Z,7.70
2019-03-16T01:30:25.783Z,7.70
2019-03-16T01:32:39.973Z,7.70
2019-03-16T01:34:34.570Z,7.70
2019-03-16T01:36:38.107Z,7.70
2019-03-16T01:38:41.700Z,7.60
2019-03-16T01:40:44.475Z,7.60
2019-03-16T01:42:50.903Z,7.60
2019-03-16T01:44:54.521Z,7.60
2019-03-16T01:46:57.286Z,7.60
2019-03-16T01:49:01.145Z,7.50
2019-03-16T01:51:04.793Z,7.50
2019-03-16T01:53:08.343Z,7.50
2019-03-16T01:55:11.211Z,7.50
2019-03-16T01:57:14.779Z,7.50
2019-03-16T01:59:18.560Z,7.50
2019-03-16T02:01:22.166Z,7.50
2019-03-16T02:03:25.806Z,7.60
2019-03-16T02:05:29.412Z,7.60
2019-03-16T02:07:32.268Z,7.60
2019-03-16T02:09:35.859Z,7.60
2019-03-16T02:11:38.670Z,7.50
2019-03-16T02:13:42.241Z,7.50
2019-03-16T02:15:45.042Z,7.50
2019-03-16T02:17:48.635Z,7.50
2019-03-16T02:19:51.418Z,7.40
2019-03-16T02:21:55.008Z,7.40
2019-03-16T02:23:57.798Z,7.40
2019-03-16T02:26:01.344Z,7.40
2019-03-16T02:28:04.135Z,7.40
2019-03-16T02:30:11.182Z,7.40
2019-03-16T02:32:14.755Z,7.30
2019-03-16T02:34:17.491Z,7.40
2019-03-16T02:36:21.090Z,7.40
2019-03-16T02:38:23.892Z,7.40
2019-03-16T02:40:27.439Z,7.40
2019-03-16T02:42:30.245Z,7.40
2019-03-16T02:44:33.821Z,7.40
2019-03-16T02:46:36.611Z,7.40
2019-03-16T02:48:40.207Z,7.40
2019-03-16T02:50:42.983Z,7.40
2019-03-16T02:52:49.799Z,7.30
2019-03-16T02:54:51.782Z,7.30
2019-03-16T02:56:54.553Z,7.30
2019-03-16T02:58:58.113Z,7.30
2019-03-16T03:01:01.067Z,7.30
2019-03-16T03:03:04.692Z,7.30
2019-03-16T03:05:09.927Z,7.20
2019-03-16T03:07:15.123Z,7.20
2019-03-16T03:09:18.690Z,7.20
2019-03-16T03:11:21.483Z,7.20
2019-03-16T03:13:25.036Z,7.20
2019-03-16T03:15:27.884Z,7.10
2019-03-16T03:17:31.523Z,7.10
2019-03-16T03:19:36.607Z,7.10
2019-03-16T03:21:40.171Z,7.20
2019-03-16T03:23:42.962Z,7.20
2019-03-16T03:25:46.512Z,7.10
2019-03-16T03:27:49.296Z,7.10
2019-03-16T03:29:57.046Z,7.10
2019-03-16T03:31:58.132Z,7.00
2019-03-16T03:34:02.630Z,7.00
2019-03-16T03:36:06.169Z,6.90
2019-03-16T03:38:08.951Z,6.90
2019-03-16T03:40:13.298Z,7.00
2019-03-16T03:42:16.855Z,6.90
2019-03-16T03:44:19.614Z,6.90
2019-03-16T03:46:23.207Z,6.90
2019-03-16T03:48:25.998Z,6.80
2019-03-16T03:50:29.639Z,6.80
2019-03-16T03:52:33.239Z,6.80
2019-03-16T03:54:36.100Z,6.80
2019-03-16T03:56:39.760Z,6.80
2019-03-16T03:58:43.387Z,6.70
2019-03-16T04:00:49.490Z,6.70
2019-03-16T04:02:53.243Z,6.70
2019-03-16T04:04:56.872Z,6.70
2019-03-16T04:07:00.572Z,6.60
2019-03-16T04:09:06.798Z,6.60
2019-03-16T04:11:10.415Z,6.60
2019-03-16T04:13:13.173Z,6.60
2019-03-16T04:15:16.842Z,6.70
2019-03-16T04:17:20.397Z,6.70
2019-03-16T04:19:23.210Z,6.70
2019-03-16T04:21:26.785Z,6.70
2019-03-16T04:23:29.568Z,6.70
2019-03-16T04:25:33.192Z,6.70
2019-03-16T04:27:36.745Z,6.70
2019-03-16T04:29:40.315Z,6.70
2019-03-16T04:31:43.859Z,6.70
2019-03-16T04:33:46.714Z,6.70
2019-03-16T04:35:50.310Z,6.60
2019-03-16T04:37:53.944Z,6.60
2019-03-16T04:39:57.514Z,6.50
2019-03-16T04:42:00.342Z,6.50
2019-03-16T04:44:03.965Z,6.50
2019-03-16T04:46:07.531Z,6.40
2019-03-16T04:48:10.338Z,6.40
2019-03-16T04:50:14.036Z,6.40
2019-03-16T04:52:17.632Z,6.30
2019-03-16T04:54:21.203Z,6.30
2019-03-16T04:56:23.972Z,6.30
2019-03-16T04:58:27.558Z,6.20
2019-03-16T05:00:30.332Z,6.30
2019-03-16T05:02:33.932Z,6.30
2019-03-16T05:04:42.506Z,6.30
2019-03-16T05:06:42.712Z,6.30
2019-03-16T05:08:45.533Z,6.30
2019-03-16T05:10:49.085Z,6.30
2019-03-16T05:12:51.867Z,6.30
2019-03-16T05:14:55.427Z,6.30
2019-03-16T05:16:58.244Z,6.40
2019-03-16T05:19:01.805Z,6.40
2019-03-16T05:21:04.591Z,6.40
2019-03-16T05:23:08.159Z,6.40
2019-03-16T05:25:11.353Z,6.50
2019-03-16T05:27:14.939Z,6.50
2019-03-16T05:29:18.490Z,6.50
2019-03-16T05:31:21.371Z,6.50
2019-03-16T05:33:24.941Z,6.50
2019-03-16T05:35:27.714Z,6.50
2019-03-16T05:37:31.346Z,6.50
2019-03-16T05:39:34.903Z,6.50
2019-03-16T05:41:37.696Z,6.50
2019-03-16T05:43:41.277Z,6.50
2019-03-16T05:45:44.039Z,6.50
2019-03-16T05:47:47.620Z,6.50
2019-03-16T05:49:50.414Z,6.40
2019-03-16T05:51:53.979Z,6.40
2019-03-16T05:53:56.791Z,6.40
2019-03-16T05:56:00.356Z,6.40
2019-03-16T05:58:03.248Z,6.40
2019-03-16T06:00:15.633Z,6.40
2019-03-16T06:02:19.250Z,6.40
2019-03-16T06:04:22.835Z,6.40
2019-03-16T06:06:27.466Z,6.40
2019-03-16T06:08:30.830Z,6.40
2019-03-16T06:10:33.630Z,6.40
2019-03-16T06:12:37.202Z,6.40
2019-03-16T06:14:40.051Z,6.40
2019-03-16T06:16:43.682Z,6.40
2019-03-16T06:18:47.244Z,6.40
2019-03-16T06:20:50.027Z,6.50
2019-03-16T06:22:53.686Z,6.50
2019-03-16T06:24:57.240Z,6.50
2019-03-16T06:27:00.219Z,6.60
2019-03-16T06:29:03.782Z,6.70
2019-03-16T06:31:06.574Z,6.70
2019-03-16T06:33:10.175Z,6.70
2019-03-16T06:35:23.895Z,6.70
2019-03-16T06:37:18.309Z,6.70
2019-03-16T06:39:21.888Z,6.70
2019-03-16T06:41:24.662Z,6.70
2019-03-16T06:43:28.250Z,6.70
2019-03-16T06:45:31.051Z,6.70
2019-03-16T06:47:34.609Z,6.80
2019-03-16T06:49:37.422Z,6.80
2019-03-16T06:51:40.974Z,6.70
2019-03-16T06:53:43.816Z,6.70
2019-03-16T06:55:47.347Z,6.80
2019-03-16T06:57:50.171Z,6.80
2019-03-16T06:59:53.962Z,6.80
2019-03-16T07:01:57.563Z,6.80
2019-03-16T07:04:00.389Z,6.90
2019-03-16T07:06:04.067Z,7.00
2019-03-16T07:08:07.649Z,7.00
2019-03-16T07:10:12.070Z,7.00
2019-03-16T07:12:15.623Z,7.00
2019-03-16T07:14:18.404Z,7.10
2019-03-16T07:16:21.992Z,7.10
2019-03-16T07:18:24.820Z,7.20
2019-03-16T07:20:28.485Z,7.20
2019-03-16T07:22:32.073Z,7.20
2019-03-16T07:24:34.904Z,7.30
2019-03-16T07:26:38.461Z,7.30
2019-03-16T07:28:41.267Z,7.30
2019-03-16T07:30:44.911Z,7.40
2019-03-16T07:32:48.477Z,7.50
2019-03-16T07:34:51.348Z,7.60
2019-03-16T07:36:54.914Z,7.50
2019-03-16T07:38:57.743Z,7.50
2019-03-16T07:41:01.544Z,7.50
2019-03-16T07:43:05.210Z,7.50
2019-03-16T07:45:10.213Z,7.60
2019-03-16T07:47:15.440Z,7.60
2019-03-16T07:49:19.028Z,7.60
2019-03-16T07:51:21.829Z,7.70
2019-03-16T07:53:25.380Z,7.60
2019-03-16T07:55:28.193Z,7.60
2019-03-16T07:57:39.981Z,7.70
2019-03-16T07:59:37.399Z,7.70
2019-03-16T08:01:41.065Z,7.70
2019-03-16T08:03:43.909Z,7.80
2019-03-16T08:05:47.421Z,7.80
2019-03-16T08:07:50.245Z,8.00
2019-03-16T08:09:53.820Z,8.10
2019-03-16T08:11:56.611Z,8.10
2019-03-16T08:14:00.247Z,8.10
2019-03-16T08:16:03.909Z,8.20
2019-03-16T08:18:08.087Z,8.30
2019-03-16T08:20:12.289Z,8.40
2019-03-16T08:22:15.846Z,8.20
2019-03-16T08:24:18.743Z,8.30
2019-03-16T08:26:22.392Z,8.20
2019-03-16T08:28:25.947Z,8.20
2019-03-16T08:30:28.786Z,8.10
2019-03-16T08:32:32.425Z,8.10
2019-03-16T08:34:36.027Z,8.30
2019-03-16T08:36:38.879Z,8.30
2019-03-16T08:38:42.441Z,8.30
2019-03-16T08:40:45.328Z,8.30
2019-03-16T08:42:51.331Z,8.50
2019-03-16T08:44:54.186Z,8.50
2019-03-16T08:46:56.981Z,8.50
2019-03-16T08:49:00.535Z,8.40
2019-03-16T08:51:03.632Z,8.40
2019-03-16T08:53:07.211Z,8.40
2019-03-16T08:55:10.284Z,8.50
2019-03-16T08:57:13.935Z,8.50
2019-03-16T08:59:17.493Z,8.60
2019-03-16T09:01:20.271Z,8.60
2019-03-16T09:03:23.960Z,8.60
2019-03-16T09:05:27.520Z,8.60
2019-03-16T09:07:30.330Z,8.60
2019-03-16T09:09:33.903Z,8.80
2019-03-16T09:11:36.705Z,8.90
2019-03-16T09:13:41.002Z,8.90
2019-03-16T09:15:48.499Z,8.90
2019-03-16T09:17:56.021Z,9.00
2019-03-16T09:19:59.878Z,8.80
2019-03-16T09:22:03.444Z,8.80
2019-03-16T09:24:06.235Z,8.90
2019-03-16T09:26:09.869Z,9.20
2019-03-16T09:28:18.665Z,9.40
2019-03-16T09:30:18.266Z,9.50
2019-03-16T09:32:22.099Z,9.30
2019-03-16T09:34:25.594Z,9.00
2019-03-16T09:36:28.366Z,9.10
2019-03-16T09:38:31.938Z,9.40
2019-03-16T09:40:34.766Z,9.20
2019-03-16T09:42:38.415Z,8.90
2019-03-16T09:44:41.294Z,9.00
2019-03-16T09:46:44.845Z,9.00
2019-03-16T09:48:47.748Z,9.10
2019-03-16T09:50:51.322Z,9.30
2019-03-16T09:52:54.103Z,9.30
2019-03-16T09:54:57.687Z,9.20
2019-03-16T09:57:01.701Z,9.30
2019-03-16T09:59:05.511Z,9.30
2019-03-16T10:01:08.386Z,9.40
2019-03-16T10:03:12.013Z,9.40
2019-03-16T10:05:14.830Z,9.50
2019-03-16T10:07:18.416Z,9.60
2019-03-16T10:09:21.215Z,9.50
2019-03-16T10:11:24.829Z,9.50
2019-03-16T10:13:27.614Z,9.70
2019-03-16T10:15:31.270Z,9.90
2019-03-16T10:17:34.126Z,9.90
2019-03-16T10:19:37.766Z,9.80
2019-03-16T10:21:40.542Z,9.80
2019-03-16T10:23:44.224Z,9.70
2019-03-16T10:25:47.014Z,9.80
2019-03-16T10:27:50.707Z,9.90
2019-03-16T10:29:54.368Z,9.70
2019-03-16T10:31:57.219Z,9.80
2019-03-16T10:34:01.030Z,10.00
2019-03-16T10:36:04.676Z,10.00
2019-03-16T10:38:07.441Z,9.80
2019-03-16T10:40:15.485Z,9.70
2019-03-16T10:42:19.179Z,9.70
2019-03-16T10:44:22.751Z,9.60
2019-03-16T10:46:25.555Z,9.70
2019-03-16T10:48:29.116Z,9.70
2019-03-16T10:50:31.907Z,9.60
2019-03-16T10:52:35.458Z,9.70
2019-03-16T10:54:38.270Z,10.00
2019-03-16T10:56:41.834Z,10.00
2019-03-16T10:58:56.177Z,10.00
2019-03-16T11:00:49.867Z,9.90
2019-03-16T11:02:52.646Z,10.10
2019-03-16T11:04:56.218Z,10.30
2019-03-16T11:06:59.020Z,10.20
2019-03-16T11:09:02.711Z,10.20
2019-03-16T11:11:06.340Z,10.30
2019-03-16T11:13:09.208Z,10.20
2019-03-16T11:15:13.925Z,10.40
2019-03-16T11:17:17.468Z,10.30
2019-03-16T11:19:20.275Z,10.30
2019-03-16T11:21:23.847Z,10.40
2019-03-16T11:23:26.631Z,10.40
2019-03-16T11:25:30.235Z,10.40
2019-03-16T11:27:33.007Z,10.50
2019-03-16T11:29:36.600Z,10.50
2019-03-16T11:31:39.403Z,10.70
2019-03-16T11:33:42.980Z,10.40
2019-03-16T11:35:45.825Z,10.50
2019-03-16T11:37:49.389Z,10.30
2019-03-16T11:39:52.166Z,10.30
2019-03-16T11:41:55.727Z,10.50
2019-03-16T11:43:58.530Z,10.50
2019-03-16T11:46:02.103Z,10.40
2019-03-16T11:48:04.915Z,10.50
2019-03-16T11:50:12.033Z,10.80
2019-03-16T11:52:15.611Z,11.10
2019-03-16T11:54:18.391Z,11.00
2019-03-16T11:56:22.020Z,10.70
2019-03-16T11:58:24.804Z,10.60
2019-03-16T12:00:28.394Z,10.40
2019-03-16T12:02:31.246Z,10.40
2019-03-16T12:04:34.807Z,10.30
2019-03-16T12:06:37.600Z,10.30
2019-03-16T12:08:41.288Z,10.30
2019-03-16T12:10:44.934Z,10.30
2019-03-16T12:12:47.714Z,10.20
2019-03-16T12:14:51.302Z,10.20
2019-03-16T12:16:54.087Z,10.10
2019-03-16T12:18:57.646Z,10.10
2019-03-16T12:21:00.470Z,10.10
2019-03-16T12:23:04.104Z,10.20
2019-03-16T12:25:07.098Z,10.20
2019-03-16T12:27:10.671Z,10.30
2019-03-16T12:29:13.481Z,10.30
2019-03-16T12:31:17.050Z,10.30
2019-03-16T12:33:19.827Z,10.30
2019-03-16T12:35:23.419Z,10.20
2019-03-16T12:37:26.202Z,10.30
2019-03-16T12:39:29.767Z,10.30
2019-03-16T12:41:32.579Z,10.20
2019-03-16T12:43:36.119Z,10.30
2019-03-16T12:45:38.929Z,10.20
2019-03-16T12:47:42.507Z,10.20
2019-03-16T12:49:45.328Z,10.20
2019-03-16T12:51:48.897Z,10.30
2019-03-16T12:53:51.681Z,10.30
2019-03-16T12:55:55.566Z,10.40
2019-03-16T12:57:59.155Z,10.30
2019-03-16T13:00:01.962Z,10.40
2019-03-16T13:02:05.623Z,10.50
2019-03-16T13:04:09.228Z,10.50
2019-03-16T13:06:12.111Z,10.60
2019-03-16T13:08:15.759Z,10.50
2019-03-16T13:10:19.109Z,10.50
2019-03-16T13:12:22.677Z,10.60
2019-03-16T13:14:25.460Z,10.40
2019-03-16T13:16:29.036Z,10.40
2019-03-16T13:18:31.846Z,10.40
2019-03-16T13:20:35.531Z,10.30
2019-03-16T13:22:38.376Z,10.20
2019-03-16T13:24:44.670Z,10.30
2019-03-16T13:26:48.218Z,10.20
2019-03-16T13:28:51.049Z,10.20
2019-03-16T13:30:54.611Z,10.20
2019-03-16T13:32:57.435Z,10.30
2019-03-16T13:35:00.996Z,10.30
2019-03-16T13:37:03.768Z,10.20
2019-03-16T13:39:07.494Z,10.10
2019-03-16T13:41:11.628Z,10.00
2019-03-16T13:43:15.818Z,10.00
2019-03-16T13:45:20.205Z,10.00
2019-03-16T13:47:24.402Z,9.90
2019-03-16T13:49:28.757Z,9.90
2019-03-16T13:51:32.329Z,9.90
2019-03-16T13:53:35.108Z,9.80
2019-03-16T13:55:39.010Z,9.80
2019-03-16T13:57:41.830Z,9.80
2019-03-16T13:59:45.618Z,9.90
2019-03-16T14:01:48.394Z,9.90
2019-03-16T14:03:52.014Z,9.90
2019-03-16T14:05:54.926Z,9.90
2019-03-16T14:07:58.490Z,9.80
2019-03-16T14:10:02.246Z,9.80
2019-03-16T14:12:05.055Z,9.80
2019-03-16T14:14:08.628Z,9.80
2019-03-16T14:16:11.396Z,9.80
2019-03-16T14:18:14.953Z,9.80
2019-03-16T14:20:17.776Z,9.70
2019-03-16T14:22:21.345Z,9.70
2019-03-16T14:24:24.155Z,9.60
2019-03-16T14:26:27.955Z,9.50
2019-03-16T14:28:30.802Z,9.50
2019-03-16T14:30:40.919Z,9.40
2019-03-16T14:32:39.658Z,9.40
2019-03-16T14:34:42.479Z,9.40
2019-03-16T14:36:46.033Z,9.40
2019-03-16T14:38:48.852Z,9.40
2019-03-16T14:40:52.480Z,9.40
2019-03-16T14:42:55.266Z,9.40
2019-03-16T14:44:59.041Z,9.30
2019-03-16T14:47:01.850Z,9.30
2019-03-16T14:49:05.484Z,9.20
2019-03-16T14:51:08.357Z,9.20
2019-03-16T14:53:11.980Z,9.20
2019-03-16T14:55:14.829Z,9.10
2019-03-16T14:57:18.486Z,9.10
2019-03-16T14:59:21.322Z,9.10
2019-03-16T15:01:24.860Z,9.00
2019-03-16T15:03:27.642Z,9.00
2019-03-16T15:05:31.206Z,9.00
2019-03-16T15:07:34.004Z,9.00
2019-03-16T15:09:37.685Z,9.00
2019-03-16T15:11:40.439Z,8.90
2019-03-16T15:13:44.061Z,8.90
2019-03-16T15:15:46.844Z,8.90
2019-03-16T15:17:50.405Z,9.00
2019-03-16T15:19:53.188Z,9.00
2019-03-16T15:21:56.756Z,8.90
2019-03-16T15:23:59.530Z,8.90
2019-03-16T15:26:05.906Z,8.80
2019-03-16T15:28:09.474Z,8.70
2019-03-16T15:30:13.430Z,8.70
2019-03-16T15:32:17.152Z,8.70
2019-03-16T15:34:20.700Z,8.70
2019-03-16T15:36:23.557Z,8.70
2019-03-16T15:38:27.207Z,8.60
2019-03-16T15:40:30.803Z,8.60
2019-03-16T15:42:33.581Z,8.60
2019-03-16T15:44:38.274Z,8.50
2019-03-16T15:46:42.042Z,8.50
2019-03-16T15:48:46.517Z,8.60
2019-03-16T15:50:49.387Z,8.50
2019-03-16T15:52:52.951Z,8.50
2019-03-16T15:54:55.745Z,8.50
2019-03-16T15:56:59.394Z,8.50
2019-03-16T15:59:02.250Z,8.50
2019-03-16T16:01:05.907Z,8.50
2019-03-16T16:03:09.528Z,8.50
2019-03-16T16:05:12.304Z,8.50
2019-03-16T16:07:15.885Z,8.40
2019-03-16T16:09:18.689Z,8.30
2019-03-16T16:11:22.402Z,8.20
2019-03-16T16:13:26.021Z,8.20
2019-03-16T16:15:31.885Z,8.20
2019-03-16T16:17:38.094Z,8.10
2019-03-16T16:19:43.622Z,8.00
2019-03-16T16:21:48.641Z,8.00
2019-03-16T16:23:55.710Z,7.90
2019-03-16T16:26:02.300Z,7.80
2019-03-16T16:28:05.867Z,7.70
2019-03-16T16:30:10.199Z,7.70
2019-03-16T16:32:13.775Z,7.60
2019-03-16T16:34:16.641Z,7.50
2019-03-16T16:36:20.231Z,7.40
2019-03-16T16:38:23.027Z,7.40
2019-03-16T16:40:26.702Z,7.30
2019-03-16T16:42:30.279Z,7.20
2019-03-16T16:44:33.050Z,7.20
2019-03-16T16:46:36.632Z,7.10
2019-03-16T16:48:39.465Z,7.00
2019-03-16T16:50:43.099Z,7.00
2019-03-16T16:52:46.662Z,7.00
2019-03-16T16:54:49.470Z,7.00
2019-03-16T16:56:53.107Z,7.00
2019-03-16T16:58:56.762Z,7.00
2019-03-16T17:01:04.323Z,6.90
2019-03-16T17:03:07.886Z,7.00
2019-03-16T17:05:10.772Z,7.00
2019-03-16T17:07:14.384Z,7.00
2019-03-16T17:09:17.139Z,6.90
2019-03-16T17:11:20.790Z,6.90
2019-03-16T17:13:24.413Z,6.90
2019-03-16T17:15:27.247Z,6.90
2019-03-16T17:17:35.507Z,6.90
2019-03-16T17:19:37.731Z,6.90
2019-03-16T17:21:41.302Z,6.90
2019-03-16T17:23:44.080Z,6.90
2019-03-16T17:25:47.665Z,6.90
2019-03-16T17:27:50.577Z,6.90
2019-03-16T17:29:54.110Z,6.90
2019-03-16T17:31:56.900Z,7.00
2019-03-16T17:34:00.493Z,6.90
2019-03-16T17:36:03.342Z,6.90
2019-03-16T17:38:06.945Z,6.80
2019-03-16T17:40:11.257Z,6.80
2019-03-16T17:42:14.832Z,6.80
2019-03-16T17:44:17.694Z,6.80
2019-03-16T17:46:21.287Z,6.80
2019-03-16T17:48:24.089Z,6.80
2019-03-16T17:50:27.757Z,6.80
2019-03-16T17:52:31.396Z,6.90
2019-03-16T17:54:34.963Z,6.90
2019-03-16T17:56:37.783Z,6.90
2019-03-16T17:58:41.363Z,6.90
2019-03-16T18:00:44.153Z,6.90
2019-03-16T18:02:51.693Z,6.90
2019-03-16T18:04:53.038Z,6.90
2019-03-16T18:06:55.849Z,6.90
2019-03-16T18:09:01.752Z,6.90
2019-03-16T18:11:05.061Z,6.80
2019-03-16T18:13:11.216Z,6.70
2019-03-16T18:15:19.324Z,6.70
2019-03-16T18:17:22.878Z,6.70
2019-03-16T18:19:25.653Z,6.70
2019-03-16T18:21:29.372Z,6.70
2019-03-16T18:23:32.998Z,6.70
2019-03-16T18:25:37.811Z,6.70
2019-03-16T18:27:41.894Z,6.60
2019-03-16T18:29:45.556Z,6.60
2019-03-16T18:31:49.272Z,6.60
2019-03-16T18:33:52.966Z,6.50
2019-03-16T18:35:56.522Z,6.60
2019-03-16T18:38:00.175Z,6.60
2019-03-16T18:40:04.230Z,6.60
2019-03-16T18:42:07.900Z,6.50
2019-03-16T18:44:26.336Z,6.50
2019-03-16T18:46:30.045Z,6.40
2019-03-16T18:48:33.725Z,6.40
2019-03-16T18:50:37.367Z,6.50
2019-03-16T18:52:40.928Z,6.50
2019-03-16T18:54:43.749Z,6.50
2019-03-16T18:56:47.323Z,6.50
2019-03-16T18:58:50.186Z,6.50
2019-03-16T19:00:53.836Z,6.50
2019-03-16T19:02:57.423Z,6.60
2019-03-16T19:05:01.024Z,6.60
2019-03-16T19:07:04.029Z,6.60
2019-03-16T19:09:08.709Z,6.60
2019-03-16T19:11:12.434Z,6.60
2019-03-16T19:13:16.259Z,6.60
2019-03-16T19:15:20.147Z,6.70
2019-03-16T19:17:23.790Z,6.70
2019-03-16T19:19:27.393Z,6.70
2019-03-16T19:21:30.220Z,6.70
2019-03-16T19:23:33.887Z,6.70
2019-03-16T19:25:37.692Z,6.70
2019-03-16T19:27:41.335Z,6.70
2019-03-16T19:29:45.091Z,6.70
2019-03-16T19:31:48.727Z,6.70
2019-03-16T19:33:53.049Z,6.70
2019-03-16T19:35:56.673Z,6.80
2019-03-16T19:37:59.570Z,6.80
2019-03-16T19:40:03.174Z,6.80
2019-03-16T19:42:05.951Z,6.80
2019-03-16T19:44:09.627Z,6.80
2019-03-16T19:46:13.195Z,6.80
2019-03-16T19:48:16.078Z,6.80
2019-03-16T19:50:19.703Z,6.80
2019-03-16T19:52:23.299Z,6.80
2019-03-16T19:54:26.103Z,6.80
2019-03-16T19:56:29.679Z,6.80
2019-03-16T19:58:32.458Z,6.80
2019-03-16T20:00:36.058Z,6.90
2019-03-16T20:02:47.248Z,6.90
2019-03-16T20:04:44.155Z,6.90
2019-03-16T20:06:47.743Z,6.90
2019-03-16T20:08:50.561Z,6.90
2019-03-16T20:11:05.972Z,7.00
2019-03-16T20:12:59.352Z,7.00
2019-03-16T20:15:02.172Z,7.00
2019-03-16T20:17:05.773Z,7.00
2019-03-16T20:19:08.567Z,7.00
2019-03-16T20:21:12.119Z,7.00
2019-03-16T20:23:15.032Z,6.90
2019-03-16T20:25:21.308Z,6.90
2019-03-16T20:27:24.866Z,7.00
2019-03-16T20:29:27.681Z,7.00
2019-03-16T20:31:31.306Z,7.00
2019-03-16T20:33:34.874Z,7.00
2019-03-16T20:35:37.686Z,7.00
2019-03-16T20:37:41.281Z,7.00
2019-03-16T20:39:44.069Z,7.00
2019-03-16T20:41:47.635Z,7.10
2019-03-16T20:43:50.464Z,7.10
2019-03-16T20:45:54.063Z,7.10
2019-03-16T20:47:57.103Z,7.10
2019-03-16T20:50:00.715Z,7.10
2019-03-16T20:52:03.593Z,7.10
2019-03-16T20:54:07.500Z,7.20
2019-03-16T20:56:11.134Z,7.30
2019-03-16T20:58:14.717Z,7.30
2019-03-16T21:00:20.316Z,7.30
2019-03-16T21:02:23.904Z,7.30
2019-03-16T21:04:26.784Z,7.30
2019-03-16T21:06:30.535Z,7.30
2019-03-16T21:08:34.128Z,7.40
2019-03-16T21:10:36.899Z,7.40
2019-03-16T21:12:40.522Z,7.40
2019-03-16T21:14:44.202Z,7.50
2019-03-16T21:16:47.044Z,7.50
2019-03-16T21:18:50.575Z,7.50
2019-03-16T21:20:53.353Z,7.50
2019-03-16T21:22:56.941Z,7.40
2019-03-16T21:24:59.741Z,7.50
2019-03-16T21:27:03.311Z,7.50
2019-03-16T21:29:06.115Z,7.50
2019-03-16T21:31:09.688Z,7.50
2019-03-16T21:33:12.517Z,7.50
2019-03-16T21:35:16.267Z,7.50
2019-03-16T21:37:21.483Z,7.60
2019-03-16T21:39:25.172Z,7.60
2019-03-16T21:41:27.899Z,7.60
2019-03-16T21:43:31.618Z,7.70
2019-03-16T21:45:35.175Z,7.70
2019-03-16T21:47:37.997Z,7.70
2019-03-16T21:49:41.679Z,7.80
2019-03-16T21:51:45.407Z,7.80
2019-03-16T21:53:49.108Z,7.90
2019-03-16T21:55:51.876Z,8.00
2019-03-16T21:57:55.452Z,8.00
2019-03-16T21:59:58.276Z,8.00
2019-03-16T22:02:01.831Z,8.00
2019-03-16T22:04:04.670Z,8.10
2019-03-16T22:06:08.712Z,8.10
2019-03-16T22:08:12.322Z,8.10
2019-03-16T22:10:16.829Z,8.10
2019-03-16T22:12:20.478Z,8.10
2019-03-16T22:14:24.067Z,8.10
2019-03-16T22:16:26.901Z,8.10
2019-03-16T22:18:30.484Z,8.20
2019-03-16T22:20:33.302Z,8.20
2019-03-16T22:22:36.959Z,8.20
2019-03-16T22:24:40.521Z,8.20
2019-03-16T22:26:43.330Z,8.20
2019-03-16T22:28:46.875Z,8.20
2019-03-16T22:30:49.687Z,8.30
2019-03-16T22:32:53.251Z,8.30
2019-03-16T22:34:56.305Z,8.30
2019-03-16T22:36:59.885Z,8.40
2019-03-16T22:39:02.689Z,8.40
2019-03-16T22:41:06.443Z,8.50
2019-03-16T22:43:10.097Z,8.50
2019-03-16T22:45:14.548Z,8.50
2019-03-16T22:47:18.103Z,8.50
2019-03-16T22:49:20.971Z,8.60
2019-03-16T22:51:24.539Z,8.60
2019-03-16T22:53:27.383Z,8.60
2019-03-16T22:55:31.081Z,8.70
2019-03-16T22:57:34.656Z,8.70
2019-03-16T22:59:37.568Z,8.70
2019-03-16T23:01:41.315Z,8.70
2019-03-16T23:03:44.960Z,8.80
2019-03-16T23:05:48.687Z,8.80
2019-03-16T23:07:52.309Z,8.80
2019-03-16T23:09:55.070Z,8.80
2019-03-16T23:11:58.663Z,8.90
2019-03-16T23:14:01.455Z,8.90
2019-03-16T23:16:05.187Z,8.90
2019-03-16T23:18:08.965Z,8.90
2019-03-16T23:20:12.693Z,8.90
2019-03-16T23:22:16.258Z,8.90
2019-03-16T23:24:19.062Z,9.00
2019-03-16T23:26:22.692Z,8.90
2019-03-16T23:28:25.509Z,9.00
2019-03-16T23:30:29.194Z,9.00
2019-03-16T23:32:32.834Z,9.00
2019-03-16T23:34:35.636Z,9.00
2019-03-16T23:36:39.316Z,9.00
2019-03-16T23:38:42.908Z,8.90
2019-03-16T23:40:45.712Z,9.00
2019-03-16T23:42:49.500Z,9.00
2019-03-16T23:44:53.226Z,8.90
2019-03-16T23:46:56.765Z,8.90
2019-03-16T23:48:59.584Z,8.90
2019-03-16T23:51:03.142Z,8.90
2019-03-16T23:53:06.014Z,8.90
2019-03-16T23:55:10.124Z,8.90
2019-03-16T23:57:13.807Z,8.90
2019-03-16T23:59:17.532Z,8.90
